sensor_id;sensor_type;location;lat;lon;timestamp;temperature;humidity
1021;DHT22;499;42.648;23.270;2023-12-20T00:00:19;0.60;91.30
1021;DHT22;499;42.648;23.270;2023-12-20T00:02:52;0.10;90.40
1021;DHT22;499;42.648;23.270;2023-12-20T00:05:20;0.10;90.10
1021;DHT22;499;42.648;23.270;2023-12-20T00:07:47;0.00;90.00
1021;DHT22;499;42.648;23.270;2023-12-20T00:10:15;0.00;89.90
1021;DHT22;499;42.648;23.270;2023-12-20T00:12:43;0.00;90.80
1021;DHT22;499;42.648;23.270;2023-12-20T00:15:10;0.10;91.40
1021;DHT22;499;42.648;23.270;2023-12-20T00:17:37;0.40;91.40
1021;DHT22;499;42.648;23.270;2023-12-20T00:20:10;0.60;91.50
1021;DHT22;499;42.648;23.270;2023-12-20T00:22:40;0.10;91.40
1021;DHT22;499;42.648;23.270;2023-12-20T00:25:14;0.30;91.20
1021;DHT22;499;42.648;23.270;2023-12-20T00:27:42;0.00;91.30
1021;DHT22;499;42.648;23.270;2023-12-20T00:30:11;0.40;91.50
1021;DHT22;499;42.648;23.270;2023-12-20T00:32:40;0.10;91.70
1021;DHT22;499;42.648;23.270;2023-12-20T00:35:13;0.10;91.70
1021;DHT22;499;42.648;23.270;2023-12-20T00:37:40;0.00;90.90
1021;DHT22;499;42.648;23.270;2023-12-20T00:40:08;-0.10;90.50
1021;DHT22;499;42.648;23.270;2023-12-20T00:42:35;-0.10;91.00
1021;DHT22;499;42.648;23.270;2023-12-20T00:45:03;-0.10;92.00
1021;DHT22;499;42.648;23.270;2023-12-20T00:47:32;-0.20;91.50
1021;DHT22;499;42.648;23.270;2023-12-20T00:50:01;-0.30;92.00
1021;DHT22;499;42.648;23.270;2023-12-20T00:52:30;-0.30;92.80
1021;DHT22;499;42.648;23.270;2023-12-20T00:54:57;0.10;94.20
1021;DHT22;499;42.648;23.270;2023-12-20T00:57:24;0.00;95.00
1021;DHT22;499;42.648;23.270;2023-12-20T01:00:05;-0.20;94.80
1021;DHT22;499;42.648;23.270;2023-12-20T01:02:32;-0.10;94.40
1021;DHT22;499;42.648;23.270;2023-12-20T01:04:59;0.10;94.20
1021;DHT22;499;42.648;23.270;2023-12-20T01:07:27;-0.10;94.00
1021;DHT22;499;42.648;23.270;2023-12-20T01:09:55;0.20;93.60
1021;DHT22;499;42.648;23.270;2023-12-20T01:12:22;0.40;93.20
1021;DHT22;499;42.648;23.270;2023-12-20T01:14:49;-0.10;92.30
1021;DHT22;499;42.648;23.270;2023-12-20T01:17:21;0.50;93.20
1021;DHT22;499;42.648;23.270;2023-12-20T01:19:56;0.00;92.60
1021;DHT22;499;42.648;23.270;2023-12-20T01:22:23;0.10;91.40
1021;DHT22;499;42.648;23.270;2023-12-20T01:24:51;0.00;90.50
1021;DHT22;499;42.648;23.270;2023-12-20T01:27:25;-0.40;88.70
1021;DHT22;499;42.648;23.270;2023-12-20T01:29:54;0.00;88.90
1021;DHT22;499;42.648;23.270;2023-12-20T01:32:34;-0.10;87.00
1021;DHT22;499;42.648;23.270;2023-12-20T01:35:12;-0.10;86.80
1021;DHT22;499;42.648;23.270;2023-12-20T01:37:40;-0.20;86.30
1021;DHT22;499;42.648;23.270;2023-12-20T01:40:10;-0.30;85.60
1021;DHT22;499;42.648;23.270;2023-12-20T01:42:42;-0.30;87.60
1021;DHT22;499;42.648;23.270;2023-12-20T01:45:09;0.00;88.00
1021;DHT22;499;42.648;23.270;2023-12-20T01:47:36;-0.30;87.70
1021;DHT22;499;42.648;23.270;2023-12-20T01:50:05;0.00;89.40
1021;DHT22;499;42.648;23.270;2023-12-20T01:52:35;-0.30;87.60
1021;DHT22;499;42.648;23.270;2023-12-20T01:55:05;-0.40;89.80
1021;DHT22;499;42.648;23.270;2023-12-20T01:57:38;-0.30;90.60
1021;DHT22;499;42.648;23.270;2023-12-20T02:00:10;-0.30;88.60
1021;DHT22;499;42.648;23.270;2023-12-20T02:02:40;-0.40;87.50
1021;DHT22;499;42.648;23.270;2023-12-20T02:05:17;-0.40;87.50
1021;DHT22;499;42.648;23.270;2023-12-20T02:07:45;-0.50;87.10
1021;DHT22;499;42.648;23.270;2023-12-20T02:10:21;-0.50;90.30
1021;DHT22;499;42.648;23.270;2023-12-20T02:12:50;-0.50;88.30
1021;DHT22;499;42.648;23.270;2023-12-20T02:15:42;-0.60;88.30
1021;DHT22;499;42.648;23.270;2023-12-20T02:18:10;-0.70;87.20
1021;DHT22;499;42.648;23.270;2023-12-20T02:20:43;-0.60;90.00
1021;DHT22;499;42.648;23.270;2023-12-20T02:23:35;-0.60;90.40
1021;DHT22;499;42.648;23.270;2023-12-20T02:26:10;-0.40;91.30
1021;DHT22;499;42.648;23.270;2023-12-20T02:28:39;-0.60;91.40
1021;DHT22;499;42.648;23.270;2023-12-20T02:31:06;-0.10;92.00
1021;DHT22;499;42.648;23.270;2023-12-20T02:33:33;-0.50;92.80
1021;DHT22;499;42.648;23.270;2023-12-20T02:36:01;0.00;93.00
1021;DHT22;499;42.648;23.270;2023-12-20T02:38:35;-0.40;92.70
1021;DHT22;499;42.648;23.270;2023-12-20T02:41:04;-0.40;92.60
1021;DHT22;499;42.648;23.270;2023-12-20T02:43:31;0.00;92.00
1021;DHT22;499;42.648;23.270;2023-12-20T02:45:58;-0.50;91.60
1021;DHT22;499;42.648;23.270;2023-12-20T02:48:25;0.20;91.10
1021;DHT22;499;42.648;23.270;2023-12-20T02:50:52;-0.10;88.90
1021;DHT22;499;42.648;23.270;2023-12-20T02:53:19;-1.70;86.70
1021;DHT22;499;42.648;23.270;2023-12-20T02:55:48;-0.70;88.50
1021;DHT22;499;42.648;23.270;2023-12-20T02:58:16;0.00;89.80
1021;DHT22;499;42.648;23.270;2023-12-20T03:00:43;-0.80;90.60
1021;DHT22;499;42.648;23.270;2023-12-20T03:03:11;-0.80;90.70
1021;DHT22;499;42.648;23.270;2023-12-20T03:05:38;-0.60;92.30
1021;DHT22;499;42.648;23.270;2023-12-20T03:08:06;-0.60;90.80
1021;DHT22;499;42.648;23.270;2023-12-20T03:10:33;-0.60;91.60
1021;DHT22;499;42.648;23.270;2023-12-20T03:13:02;-0.30;91.00
1021;DHT22;499;42.648;23.270;2023-12-20T03:15:29;-0.70;90.10
1021;DHT22;499;42.648;23.270;2023-12-20T03:17:56;-0.70;91.00
1021;DHT22;499;42.648;23.270;2023-12-20T03:20:26;-0.70;90.60
1021;DHT22;499;42.648;23.270;2023-12-20T03:22:54;-0.70;90.90
1021;DHT22;499;42.648;23.270;2023-12-20T03:25:22;-0.60;91.20
1021;DHT22;499;42.648;23.270;2023-12-20T03:27:50;-0.30;91.60
1021;DHT22;499;42.648;23.270;2023-12-20T03:30:21;-0.60;90.90
1021;DHT22;499;42.648;23.270;2023-12-20T03:32:50;-0.60;90.80
1021;DHT22;499;42.648;23.270;2023-12-20T03:35:22;-0.60;90.40
1021;DHT22;499;42.648;23.270;2023-12-20T03:37:50;-0.60;90.00
1021;DHT22;499;42.648;23.270;2023-12-20T03:40:17;-0.50;90.70
1021;DHT22;499;42.648;23.270;2023-12-20T03:42:44;0.70;89.60
1021;DHT22;499;42.648;23.270;2023-12-20T03:45:12;-0.10;90.10
1021;DHT22;499;42.648;23.270;2023-12-20T03:47:42;-0.70;88.70
1021;DHT22;499;42.648;23.270;2023-12-20T03:50:22;-0.70;89.40
1021;DHT22;499;42.648;23.270;2023-12-20T03:52:50;-0.60;89.30
1021;DHT22;499;42.648;23.270;2023-12-20T03:55:17;-0.60;89.20
1021;DHT22;499;42.648;23.270;2023-12-20T03:57:45;-0.20;88.40
1021;DHT22;499;42.648;23.270;2023-12-20T04:00:29;-0.50;88.50
1021;DHT22;499;42.648;23.270;2023-12-20T04:03:14;-0.80;88.90
1021;DHT22;499;42.648;23.270;2023-12-20T04:05:58;-0.50;90.80
1021;DHT22;499;42.648;23.270;2023-12-20T04:08:41;-0.70;90.40
1021;DHT22;499;42.648;23.270;2023-12-20T04:11:11;-0.90;88.90
1021;DHT22;499;42.648;23.270;2023-12-20T04:13:47;-0.80;90.30
1021;DHT22;499;42.648;23.270;2023-12-20T04:16:14;-0.80;90.70
1021;DHT22;499;42.648;23.270;2023-12-20T04:18:43;0.70;92.20
1021;DHT22;499;42.648;23.270;2023-12-20T04:21:12;-0.70;91.60
1021;DHT22;499;42.648;23.270;2023-12-20T04:23:53;-1.30;91.00
1021;DHT22;499;42.648;23.270;2023-12-20T04:26:35;-0.70;91.40
1021;DHT22;499;42.648;23.270;2023-12-20T04:29:11;-0.70;92.60
1021;DHT22;499;42.648;23.270;2023-12-20T04:31:43;-0.80;92.00
1021;DHT22;499;42.648;23.270;2023-12-20T04:34:11;-0.70;92.70
1021;DHT22;499;42.648;23.270;2023-12-20T04:36:43;0.60;92.50
1021;DHT22;499;42.648;23.270;2023-12-20T04:39:18;-0.70;91.90
1021;DHT22;499;42.648;23.270;2023-12-20T04:41:55;-1.10;92.10
1021;DHT22;499;42.648;23.270;2023-12-20T04:44:36;-0.70;92.70
1021;DHT22;499;42.648;23.270;2023-12-20T04:47:19;-0.70;93.00
1021;DHT22;499;42.648;23.270;2023-12-20T04:50:21;-0.70;92.70
1021;DHT22;499;42.648;23.270;2023-12-20T04:53:19;-0.90;91.60
1021;DHT22;499;42.648;23.270;2023-12-20T04:55:59;-0.90;92.30
1021;DHT22;499;42.648;23.270;2023-12-20T04:58:36;-0.90;92.60
1021;DHT22;499;42.648;23.270;2023-12-20T05:01:24;-0.90;93.20
1021;DHT22;499;42.648;23.270;2023-12-20T05:03:55;-0.80;93.00
1021;DHT22;499;42.648;23.270;2023-12-20T05:06:34;-0.90;91.90
1021;DHT22;499;42.648;23.270;2023-12-20T05:09:12;-0.90;92.20
1021;DHT22;499;42.648;23.270;2023-12-20T05:11:55;-1.00;91.80
1021;DHT22;499;42.648;23.270;2023-12-20T05:14:36;-0.90;92.80
1021;DHT22;499;42.648;23.270;2023-12-20T05:17:13;-1.00;92.60
1021;DHT22;499;42.648;23.270;2023-12-20T05:19:47;-0.90;93.10
1021;DHT22;499;42.648;23.270;2023-12-20T05:22:18;-0.90;92.60
1021;DHT22;499;42.648;23.270;2023-12-20T05:24:49;-1.00;92.10
1021;DHT22;499;42.648;23.270;2023-12-20T05:27:22;-0.90;93.80
1021;DHT22;499;42.648;23.270;2023-12-20T05:29:58;0.50;93.30
1021;DHT22;499;42.648;23.270;2023-12-20T05:32:32;-1.00;92.50
1021;DHT22;499;42.648;23.270;2023-12-20T05:35:07;-1.00;94.00
1021;DHT22;499;42.648;23.270;2023-12-20T05:38:00;-0.90;94.10
1021;DHT22;499;42.648;23.270;2023-12-20T05:40:40;-1.00;93.30
1021;DHT22;499;42.648;23.270;2023-12-20T05:43:09;0.40;93.40
1021;DHT22;499;42.648;23.270;2023-12-20T05:45:42;-1.10;92.80
1021;DHT22;499;42.648;23.270;2023-12-20T05:48:09;-1.00;93.90
1021;DHT22;499;42.648;23.270;2023-12-20T05:54:26;-1.00;93.20
1021;DHT22;499;42.648;23.270;2023-12-20T05:57:13;-1.00;93.10
1021;DHT22;499;42.648;23.270;2023-12-20T06:00:04;-1.00;93.10
1021;DHT22;499;42.648;23.270;2023-12-20T06:02:32;-0.90;93.90
1021;DHT22;499;42.648;23.270;2023-12-20T06:05:02;-0.80;93.00
1021;DHT22;499;42.648;23.270;2023-12-20T06:07:32;-1.00;91.50
1021;DHT22;499;42.648;23.270;2023-12-20T06:10:07;-1.00;92.60
1021;DHT22;499;42.648;23.270;2023-12-20T06:12:41;-1.00;92.50
1021;DHT22;499;42.648;23.270;2023-12-20T06:15:09;-0.10;93.60
1021;DHT22;499;42.648;23.270;2023-12-20T06:17:36;-1.00;92.50
1021;DHT22;499;42.648;23.270;2023-12-20T06:20:06;-1.10;92.60
1021;DHT22;499;42.648;23.270;2023-12-20T06:22:36;-1.00;94.50
1021;DHT22;499;42.648;23.270;2023-12-20T06:25:06;0.20;93.90
1021;DHT22;499;42.648;23.270;2023-12-20T06:27:35;-0.90;93.90
1021;DHT22;499;42.648;23.270;2023-12-20T06:30:07;-0.90;94.70
1021;DHT22;499;42.648;23.270;2023-12-20T06:32:45;-0.80;94.60
1021;DHT22;499;42.648;23.270;2023-12-20T06:35:15;-0.70;94.70
1021;DHT22;499;42.648;23.270;2023-12-20T06:37:45;-0.70;94.60
1021;DHT22;499;42.648;23.270;2023-12-20T06:40:20;-0.70;93.70
1021;DHT22;499;42.648;23.270;2023-12-20T06:43:05;0.00;94.30
1021;DHT22;499;42.648;23.270;2023-12-20T06:45:37;-0.50;94.60
1021;DHT22;499;42.648;23.270;2023-12-20T06:48:13;-0.50;93.20
1021;DHT22;499;42.648;23.270;2023-12-20T06:50:41;-0.50;93.50
1021;DHT22;499;42.648;23.270;2023-12-20T06:53:11;-0.50;93.50
1021;DHT22;499;42.648;23.270;2023-12-20T06:55:43;-0.40;94.00
1021;DHT22;499;42.648;23.270;2023-12-20T06:58:16;-0.60;94.50
1021;DHT22;499;42.648;23.270;2023-12-20T07:00:50;-0.10;94.60
1021;DHT22;499;42.648;23.270;2023-12-20T07:03:37;-0.10;92.80
1021;DHT22;499;42.648;23.270;2023-12-20T07:06:06;0.10;93.30
1021;DHT22;499;42.648;23.270;2023-12-20T07:08:36;0.10;91.60
1021;DHT22;499;42.648;23.270;2023-12-20T07:11:09;0.30;91.90
1021;DHT22;499;42.648;23.270;2023-12-20T07:13:38;0.40;91.60
1021;DHT22;499;42.648;23.270;2023-12-20T07:16:06;0.80;90.60
1021;DHT22;499;42.648;23.270;2023-12-20T07:18:34;0.70;90.10
1021;DHT22;499;42.648;23.270;2023-12-20T07:21:03;1.00;88.40
1021;DHT22;499;42.648;23.270;2023-12-20T07:23:46;0.80;87.20
1021;DHT22;499;42.648;23.270;2023-12-20T07:26:21;1.00;84.80
1021;DHT22;499;42.648;23.270;2023-12-20T07:28:49;1.00;79.80
1021;DHT22;499;42.648;23.270;2023-12-20T07:31:16;0.90;78.50
1021;DHT22;499;42.648;23.270;2023-12-20T07:33:43;1.30;78.80
1021;DHT22;499;42.648;23.270;2023-12-20T07:36:10;1.20;76.90
1021;DHT22;499;42.648;23.270;2023-12-20T07:38:38;1.20;72.40
1021;DHT22;499;42.648;23.270;2023-12-20T07:41:09;1.10;76.10
1021;DHT22;499;42.648;23.270;2023-12-20T07:43:38;1.10;70.70
1021;DHT22;499;42.648;23.270;2023-12-20T07:46:07;1.20;72.20
1021;DHT22;499;42.648;23.270;2023-12-20T07:48:46;1.20;70.80
1021;DHT22;499;42.648;23.270;2023-12-20T07:51:15;-0.40;64.10
1021;DHT22;499;42.648;23.270;2023-12-20T07:53:44;1.20;66.10
1021;DHT22;499;42.648;23.270;2023-12-20T07:56:15;1.30;67.20
1021;DHT22;499;42.648;23.270;2023-12-20T07:58:53;1.20;66.10
1021;DHT22;499;42.648;23.270;2023-12-20T08:01:39;1.40;69.40
1021;DHT22;499;42.648;23.270;2023-12-20T08:04:16;1.60;69.70
1021;DHT22;499;42.648;23.270;2023-12-20T08:06:51;1.70;68.10
1021;DHT22;499;42.648;23.270;2023-12-20T08:09:23;0.00;58.90
1021;DHT22;499;42.648;23.270;2023-12-20T08:11:54;1.70;61.00
1021;DHT22;499;42.648;23.270;2023-12-20T08:14:34;1.60;59.40
1021;DHT22;499;42.648;23.270;2023-12-20T08:17:33;0.70;59.70
1021;DHT22;499;42.648;23.270;2023-12-20T08:20:27;1.90;60.70
1021;DHT22;499;42.648;23.270;2023-12-20T08:23:03;2.00;60.20
1021;DHT22;499;42.648;23.270;2023-12-20T08:25:46;2.10;58.40
1021;DHT22;499;42.648;23.270;2023-12-20T08:28:16;2.30;58.60
1021;DHT22;499;42.648;23.270;2023-12-20T08:30:49;2.30;57.30
1021;DHT22;499;42.648;23.270;2023-12-20T08:33:22;2.30;56.10
1021;DHT22;499;42.648;23.270;2023-12-20T08:35:57;2.60;56.20
1021;DHT22;499;42.648;23.270;2023-12-20T08:38:37;2.60;52.80
1021;DHT22;499;42.648;23.270;2023-12-20T08:41:18;2.70;51.40
1021;DHT22;499;42.648;23.270;2023-12-20T08:43:52;2.50;50.10
1021;DHT22;499;42.648;23.270;2023-12-20T08:46:53;2.50;49.70
1021;DHT22;499;42.648;23.270;2023-12-20T08:49:32;2.20;51.40
1021;DHT22;499;42.648;23.270;2023-12-20T08:52:14;2.00;53.40
1021;DHT22;499;42.648;23.270;2023-12-20T08:54:44;2.00;56.70
1021;DHT22;499;42.648;23.270;2023-12-20T08:57:13;2.10;57.00
1021;DHT22;499;42.648;23.270;2023-12-20T08:59:40;2.00;54.60
1021;DHT22;499;42.648;23.270;2023-12-20T09:02:22;2.20;55.80
1021;DHT22;499;42.648;23.270;2023-12-20T09:05:04;2.30;55.50
1021;DHT22;499;42.648;23.270;2023-12-20T09:07:46;2.30;53.30
1021;DHT22;499;42.648;23.270;2023-12-20T09:10:36;2.20;54.90
1021;DHT22;499;42.648;23.270;2023-12-20T09:13:22;2.20;54.60
1021;DHT22;499;42.648;23.270;2023-12-20T09:15:54;2.20;56.60
1021;DHT22;499;42.648;23.270;2023-12-20T09:18:27;2.40;57.40
1021;DHT22;499;42.648;23.270;2023-12-20T09:20:55;1.30;54.40
1021;DHT22;499;42.648;23.270;2023-12-20T09:23:23;2.80;53.80
1021;DHT22;499;42.648;23.270;2023-12-20T09:25:53;2.50;51.20
1021;DHT22;499;42.648;23.270;2023-12-20T09:28:22;2.90;51.60
1021;DHT22;499;42.648;23.270;2023-12-20T09:30:53;3.00;50.70
1021;DHT22;499;42.648;23.270;2023-12-20T09:33:52;3.40;49.60
1021;DHT22;499;42.648;23.270;2023-12-20T09:36:21;3.20;46.80
1021;DHT22;499;42.648;23.270;2023-12-20T09:38:50;2.80;48.00
1021;DHT22;499;42.648;23.270;2023-12-20T09:41:20;2.90;50.00
1021;DHT22;499;42.648;23.270;2023-12-20T09:43:49;3.60;49.80
1021;DHT22;499;42.648;23.270;2023-12-20T09:46:23;3.20;48.50
1021;DHT22;499;42.648;23.270;2023-12-20T09:48:59;3.00;48.50
1021;DHT22;499;42.648;23.270;2023-12-20T09:51:29;3.00;47.20
1021;DHT22;499;42.648;23.270;2023-12-20T09:54:03;2.90;47.90
1021;DHT22;499;42.648;23.270;2023-12-20T09:56:44;3.00;50.30
1021;DHT22;499;42.648;23.270;2023-12-20T09:59:12;3.20;47.70
1021;DHT22;499;42.648;23.270;2023-12-20T10:01:40;3.30;47.00
1021;DHT22;499;42.648;23.270;2023-12-20T10:04:12;3.20;45.60
1021;DHT22;499;42.648;23.270;2023-12-20T10:06:43;3.50;46.30
1021;DHT22;499;42.648;23.270;2023-12-20T10:09:12;3.40;46.50
1021;DHT22;499;42.648;23.270;2023-12-20T10:11:40;3.50;45.50
1021;DHT22;499;42.648;23.270;2023-12-20T10:14:11;3.70;46.10
1021;DHT22;499;42.648;23.270;2023-12-20T10:16:45;3.60;45.50
1021;DHT22;499;42.648;23.270;2023-12-20T10:19:19;3.80;45.80
1021;DHT22;499;42.648;23.270;2023-12-20T10:21:59;4.00;43.90
1021;DHT22;499;42.648;23.270;2023-12-20T10:24:30;4.20;44.50
1021;DHT22;499;42.648;23.270;2023-12-20T10:27:04;4.40;43.30
1021;DHT22;499;42.648;23.270;2023-12-20T10:29:37;4.40;40.00
1021;DHT22;499;42.648;23.270;2023-12-20T10:32:24;4.20;41.40
1021;DHT22;499;42.648;23.270;2023-12-20T10:35:11;4.40;40.90
1021;DHT22;499;42.648;23.270;2023-12-20T10:37:58;4.30;40.30
1021;DHT22;499;42.648;23.270;2023-12-20T10:40:34;4.50;40.00
1021;DHT22;499;42.648;23.270;2023-12-20T10:43:05;4.20;40.60
1021;DHT22;499;42.648;23.270;2023-12-20T10:45:34;3.40;40.80
1021;DHT22;499;42.648;23.270;2023-12-20T10:48:03;4.10;43.00
1021;DHT22;499;42.648;23.270;2023-12-20T10:50:55;4.10;43.30
1021;DHT22;499;42.648;23.270;2023-12-20T10:53:39;4.40;42.10
1021;DHT22;499;42.648;23.270;2023-12-20T10:56:12;4.00;42.70
1021;DHT22;499;42.648;23.270;2023-12-20T10:58:42;3.90;43.60
1021;DHT22;499;42.648;23.270;2023-12-20T11:01:13;3.80;45.60
1021;DHT22;499;42.648;23.270;2023-12-20T11:03:47;3.70;45.60
1021;DHT22;499;42.648;23.270;2023-12-20T11:06:38;3.60;46.10
1021;DHT22;499;42.648;23.270;2023-12-20T11:09:35;3.70;47.40
1021;DHT22;499;42.648;23.270;2023-12-20T11:12:13;3.50;47.50
1021;DHT22;499;42.648;23.270;2023-12-20T11:14:48;3.80;47.40
1021;DHT22;499;42.648;23.270;2023-12-20T11:17:17;3.80;47.50
1021;DHT22;499;42.648;23.270;2023-12-20T11:20:07;3.90;46.50
1021;DHT22;499;42.648;23.270;2023-12-20T11:22:51;3.90;45.80
1021;DHT22;499;42.648;23.270;2023-12-20T11:31:52;4.10;45.90
1021;DHT22;499;42.648;23.270;2023-12-20T11:34:27;4.30;45.00
1021;DHT22;499;42.648;23.270;2023-12-20T11:37:02;4.30;44.70
1021;DHT22;499;42.648;23.270;2023-12-20T11:39:55;4.20;44.70
1021;DHT22;499;42.648;23.270;2023-12-20T11:42:42;4.30;46.00
1021;DHT22;499;42.648;23.270;2023-12-20T11:45:20;4.50;44.40
1021;DHT22;499;42.648;23.270;2023-12-20T11:47:53;4.60;43.80
1021;DHT22;499;42.648;23.270;2023-12-20T11:50:28;5.10;44.00
1021;DHT22;499;42.648;23.270;2023-12-20T11:53:03;4.50;43.30
1021;DHT22;499;42.648;23.270;2023-12-20T11:55:39;4.80;42.90
1021;DHT22;499;42.648;23.270;2023-12-20T11:58:08;4.90;42.10
1021;DHT22;499;42.648;23.270;2023-12-20T12:00:39;5.10;43.30
1021;DHT22;499;42.648;23.270;2023-12-20T12:03:14;5.30;42.30
1021;DHT22;499;42.648;23.270;2023-12-20T12:05:44;5.30;40.10
1021;DHT22;499;42.648;23.270;2023-12-20T12:08:16;5.40;40.10
1021;DHT22;499;42.648;23.270;2023-12-20T12:10:46;5.50;39.20
1021;DHT22;499;42.648;23.270;2023-12-20T12:13:29;5.60;39.50
1021;DHT22;499;42.648;23.270;2023-12-20T12:16:09;5.60;38.90
1021;DHT22;499;42.648;23.270;2023-12-20T12:18:40;5.70;38.80
1021;DHT22;499;42.648;23.270;2023-12-20T12:21:08;5.90;38.60
1021;DHT22;499;42.648;23.270;2023-12-20T12:23:36;6.10;37.90
1021;DHT22;499;42.648;23.270;2023-12-20T12:26:14;6.00;37.70
1021;DHT22;499;42.648;23.270;2023-12-20T12:28:43;5.80;36.60
1021;DHT22;499;42.648;23.270;2023-12-20T12:31:16;5.90;37.70
1021;DHT22;499;42.648;23.270;2023-12-20T12:33:45;6.00;37.00
1021;DHT22;499;42.648;23.270;2023-12-20T12:36:14;6.00;36.40
1021;DHT22;499;42.648;23.270;2023-12-20T12:38:49;6.00;36.50
1021;DHT22;499;42.648;23.270;2023-12-20T12:41:20;6.00;36.80
1021;DHT22;499;42.648;23.270;2023-12-20T12:43:52;6.10;36.40
1021;DHT22;499;42.648;23.270;2023-12-20T12:46:30;6.10;36.80
1021;DHT22;499;42.648;23.270;2023-12-20T12:49:02;6.10;36.60
1021;DHT22;499;42.648;23.270;2023-12-20T12:51:53;6.10;36.50
1021;DHT22;499;42.648;23.270;2023-12-20T12:55:04;6.00;38.50
1021;DHT22;499;42.648;23.270;2023-12-20T13:01:21;5.90;37.20
1021;DHT22;499;42.648;23.270;2023-12-20T13:04:04;5.60;37.90
1021;DHT22;499;42.648;23.270;2023-12-20T13:06:38;5.60;37.80
1021;DHT22;499;42.648;23.270;2023-12-20T13:09:08;5.50;39.00
1021;DHT22;499;42.648;23.270;2023-12-20T13:11:37;6.00;40.30
1021;DHT22;499;42.648;23.270;2023-12-20T13:14:05;5.60;39.00
1021;DHT22;499;42.648;23.270;2023-12-20T13:16:44;5.60;38.40
1021;DHT22;499;42.648;23.270;2023-12-20T13:19:18;5.30;39.40
1021;DHT22;499;42.648;23.270;2023-12-20T13:21:47;5.40;41.00
1021;DHT22;499;42.648;23.270;2023-12-20T13:24:21;5.40;40.00
1021;DHT22;499;42.648;23.270;2023-12-20T13:26:56;5.20;39.80
1021;DHT22;499;42.648;23.270;2023-12-20T13:29:26;4.90;41.90
1021;DHT22;499;42.648;23.270;2023-12-20T13:31:56;4.90;42.00
1021;DHT22;499;42.648;23.270;2023-12-20T13:34:26;4.90;42.40
1021;DHT22;499;42.648;23.270;2023-12-20T13:36:53;4.80;41.70
1021;DHT22;499;42.648;23.270;2023-12-20T13:39:30;4.90;43.70
1021;DHT22;499;42.648;23.270;2023-12-20T13:42:05;4.90;42.00
1021;DHT22;499;42.648;23.270;2023-12-20T13:44:34;4.90;42.80
1021;DHT22;499;42.648;23.270;2023-12-20T13:47:13;4.70;42.80
1021;DHT22;499;42.648;23.270;2023-12-20T13:49:46;4.60;44.60
1021;DHT22;499;42.648;23.270;2023-12-20T13:52:17;4.70;45.90
1021;DHT22;499;42.648;23.270;2023-12-20T13:54:48;4.80;45.10
1021;DHT22;499;42.648;23.270;2023-12-20T13:57:31;4.80;45.10
1021;DHT22;499;42.648;23.270;2023-12-20T14:00:04;4.60;44.80
1021;DHT22;499;42.648;23.270;2023-12-20T14:02:36;4.70;46.30
1021;DHT22;499;42.648;23.270;2023-12-20T14:05:06;4.70;46.50
1021;DHT22;499;42.648;23.270;2023-12-20T14:07:43;4.80;46.40
1021;DHT22;499;42.648;23.270;2023-12-20T14:10:18;4.80;45.90
1021;DHT22;499;42.648;23.270;2023-12-20T14:12:53;4.80;45.10
1021;DHT22;499;42.648;23.270;2023-12-20T14:15:27;4.50;45.10
1021;DHT22;499;42.648;23.270;2023-12-20T14:18:07;4.50;46.20
1021;DHT22;499;42.648;23.270;2023-12-20T14:20:37;4.40;47.80
1021;DHT22;499;42.648;23.270;2023-12-20T14:23:10;4.30;48.40
1021;DHT22;499;42.648;23.270;2023-12-20T14:25:54;4.20;47.40
1021;DHT22;499;42.648;23.270;2023-12-20T14:28:42;4.10;48.70
1021;DHT22;499;42.648;23.270;2023-12-20T14:31:20;4.00;49.70
1021;DHT22;499;42.648;23.270;2023-12-20T14:33:53;3.90;50.60
1021;DHT22;499;42.648;23.270;2023-12-20T14:36:23;3.90;52.70
1021;DHT22;499;42.648;23.270;2023-12-20T14:38:59;3.90;52.20
1021;DHT22;499;42.648;23.270;2023-12-20T14:41:44;3.80;51.80
1021;DHT22;499;42.648;23.270;2023-12-20T14:44:14;3.60;53.60
1021;DHT22;499;42.648;23.270;2023-12-20T14:46:46;3.50;54.40
1021;DHT22;499;42.648;23.270;2023-12-20T14:49:15;3.40;55.10
1021;DHT22;499;42.648;23.270;2023-12-20T14:51:48;3.40;56.80
1021;DHT22;499;42.648;23.270;2023-12-20T14:54:19;3.40;56.80
1021;DHT22;499;42.648;23.270;2023-12-20T14:56:51;3.20;57.00
1021;DHT22;499;42.648;23.270;2023-12-20T14:59:28;3.20;58.70
1021;DHT22;499;42.648;23.270;2023-12-20T15:01:58;3.10;59.20
1021;DHT22;499;42.648;23.270;2023-12-20T15:04:41;3.00;59.40
1021;DHT22;499;42.648;23.270;2023-12-20T15:07:13;2.70;60.70
1021;DHT22;499;42.648;23.270;2023-12-20T15:09:41;2.80;62.20
1021;DHT22;499;42.648;23.270;2023-12-20T15:12:13;1.50;62.90
1021;DHT22;499;42.648;23.270;2023-12-20T15:14:41;2.60;64.30
1021;DHT22;499;42.648;23.270;2023-12-20T15:17:08;2.70;67.60
1021;DHT22;499;42.648;23.270;2023-12-20T15:19:37;2.30;68.40
1021;DHT22;499;42.648;23.270;2023-12-20T15:22:05;2.30;71.90
1021;DHT22;499;42.648;23.270;2023-12-20T15:24:32;2.40;73.70
1021;DHT22;499;42.648;23.270;2023-12-20T15:27:05;2.40;74.10
1021;DHT22;499;42.648;23.270;2023-12-20T15:29:41;2.30;74.40
1021;DHT22;499;42.648;23.270;2023-12-20T15:32:15;2.00;74.10
1021;DHT22;499;42.648;23.270;2023-12-20T15:34:47;2.30;74.20
1021;DHT22;499;42.648;23.270;2023-12-20T15:37:16;2.20;74.50
1021;DHT22;499;42.648;23.270;2023-12-20T15:39:46;2.00;73.80
1021;DHT22;499;42.648;23.270;2023-12-20T15:42:29;2.00;76.10
1021;DHT22;499;42.648;23.270;2023-12-20T15:45:08;1.80;76.80
1021;DHT22;499;42.648;23.270;2023-12-20T15:47:38;1.80;80.50
1021;DHT22;499;42.648;23.270;2023-12-20T15:50:12;1.80;85.80
1021;DHT22;499;42.648;23.270;2023-12-20T15:52:44;1.80;87.70
1021;DHT22;499;42.648;23.270;2023-12-20T15:55:15;1.90;89.60
1021;DHT22;499;42.648;23.270;2023-12-20T15:57:46;2.00;91.20
1021;DHT22;499;42.648;23.270;2023-12-20T16:00:22;2.00;91.10
1021;DHT22;499;42.648;23.270;2023-12-20T16:02:57;2.10;91.80
1021;DHT22;499;42.648;23.270;2023-12-20T16:05:42;2.20;90.90
1021;DHT22;499;42.648;23.270;2023-12-20T16:08:43;2.10;89.70
1021;DHT22;499;42.648;23.270;2023-12-20T16:11:35;2.10;89.80
1021;DHT22;499;42.648;23.270;2023-12-20T16:14:11;2.10;90.20
1021;DHT22;499;42.648;23.270;2023-12-20T16:17:00;1.40;90.20
1021;DHT22;499;42.648;23.270;2023-12-20T16:19:46;2.30;91.20
1021;DHT22;499;42.648;23.270;2023-12-20T16:22:41;2.40;88.70
1021;DHT22;499;42.648;23.270;2023-12-20T16:25:31;2.50;86.60
1021;DHT22;499;42.648;23.270;2023-12-20T16:28:16;2.40;83.00
1021;DHT22;499;42.648;23.270;2023-12-20T16:30:53;2.30;82.80
1021;DHT22;499;42.648;23.270;2023-12-20T16:33:29;2.40;82.60
1021;DHT22;499;42.648;23.270;2023-12-20T16:36:19;2.10;80.20
1021;DHT22;499;42.648;23.270;2023-12-20T16:39:09;2.40;80.20
1021;DHT22;499;42.648;23.270;2023-12-20T16:41:55;2.30;78.00
1021;DHT22;499;42.648;23.270;2023-12-20T16:44:31;2.30;80.00
1021;DHT22;499;42.648;23.270;2023-12-20T16:47:04;2.20;75.70
1021;DHT22;499;42.648;23.270;2023-12-20T16:49:37;2.30;78.20
1021;DHT22;499;42.648;23.270;2023-12-20T16:52:06;2.30;76.40
1021;DHT22;499;42.648;23.270;2023-12-20T16:54:37;2.20;76.40
1021;DHT22;499;42.648;23.270;2023-12-20T16:57:15;2.20;75.50
1021;DHT22;499;42.648;23.270;2023-12-20T16:59:49;2.10;75.40
1021;DHT22;499;42.648;23.270;2023-12-20T17:02:27;2.00;77.00
1021;DHT22;499;42.648;23.270;2023-12-20T17:05:05;0.60;80.10
1021;DHT22;499;42.648;23.270;2023-12-20T17:07:41;2.00;81.90
1021;DHT22;499;42.648;23.270;2023-12-20T17:10:11;2.00;80.80